Etusivu
METAR-TAF:

METAR-TAF

Lentoasemat :

Blue River, Brittiläinen Kolumbia, Kanada

Leveyspiiri: 52-08N, Pituuspiiri: 119-18W, korkeus merenpinnasta: 679 m

Tämänhetkinen sää

Tämä raportti tehtiin 17 minuuttia sitten, kello 17.00 UTC
tyyntä
Lämpötila 0°C
Kosteus 100%
Ilmanpaine 1017 hPa
Näkyvyys: 1.0 km
Pilvistä 400 ft:n korkeudessa
utua

METAR: CYCP 181700Z 00000KT 5/8SM BR OVC004 00/00 A3004 RMK FG5ST3 SLP203

Aika: 09:17 (17:17 UTC)


TAF: puuttuu

Säähavainnot ja -ennusteet yli 4000 lentoasemalta (METAR- ja TAF-raportit).

Käytössä olevat sääasemat on merkitty karttaan keltaisilla ja punaisilla pisteillä.

Aseta hiiri pisteen päälle nähdäksesi sääaseman nimen.

Klikkaa sitten nähdäksesi säähavainnot ja -ennusteet.

Kartan vaihtaminen: klikkaa mustalla rastilla varustettuja vihreitä pisteitä, niin voit zoomata sisään; viivalla varustettua vihreää pistettä, niin voit zoomata ulos tai vihreitä nuolia, niin pääset viereisille kartoille.


METAR-TAF: